Humidity-temperature Sensor

Selected Measurement Type: Air Temperature

 
Air Temperature [°C]     6 entries per hour
Showing data from 8/31/2020 (00:00:00 Z) to 8/30/2020 (00:01:00 Z)
Previous Next [ Day | 3-Days | 7-Days ]
First Last
Prev [ Day | 3-Days | 7-Days ] Next
First Last

Start Time:     :
End Time:     :     
Time (in GMT) :00 :50 :40 :30 :20 :10
Previous Next [ Day | 3-Days | 7-Days ]
First Last
Prev [ Day | 3-Days | 7-Days ] Next
First Last


123 => good data
MM => data is determined as missing
-- => data not received/configured
Back to Top Back to Top
8/31/2020 00:00 to 23:10 28.54 28.50 28.53 28.53 28.55 28.52
8/30/2020 23:00 to 22:10 28.31 28.47 28.31 28.28 28.32 28.43
8/30/2020 22:00 to 21:10 28.34 28.44 28.30 28.43 28.38 28.39
8/30/2020 21:00 to 20:10 28.33 28.35 28.34 28.42 28.39 28.41
8/30/2020 20:00 to 19:10 28.40 28.45 28.31 28.23 28.38 28.43
8/30/2020 19:00 to 18:10 28.38 28.43 28.39 28.08 27.90 28.06
8/30/2020 18:00 to 17:10 28.04 27.97 28.10 28.18 28.28 28.31
8/30/2020 17:00 to 16:10 28.28 28.24 28.24 28.11 28.00 28.05
8/30/2020 16:00 to 15:10 28.21 28.34 28.36 28.27 28.40 28.34
8/30/2020 15:00 to 14:10 28.36 28.36 28.29 28.37 28.33 28.19
8/30/2020 14:00 to 13:10 28.34 28.30 28.40 28.36 28.23 28.32
8/30/2020 13:00 to 12:10 28.27 28.28 28.32 28.37 28.37 28.29
8/30/2020 12:00 to 11:10 28.34 28.35 28.37 28.32 28.36 28.31
8/30/2020 11:00 to 10:10 28.41 28.34 28.43 28.53 28.52 28.54
8/30/2020 10:00 to 9:10 28.65 28.64 28.59 28.64 28.69 28.70
8/30/2020 09:00 to 8:10 28.75 28.58 28.63 28.60 28.56 28.44
8/30/2020 08:00 to 7:10 28.43 28.39 28.36 28.31 28.17 28.04
8/30/2020 07:00 to 6:10 27.91 27.89 27.53 27.56 27.94 27.99
8/30/2020 06:00 to 5:10 27.97 28.08 28.01 28.05 27.97 27.92
8/30/2020 05:00 to 4:10 27.93 27.76 27.52 26.92 27.01 27.01
8/30/2020 04:00 to 3:10 27.31 27.15 27.00 27.38 27.44 28.24
8/30/2020 03:00 to 2:10 28.26 28.25 28.38 28.35 28.37 28.37
8/30/2020 02:00 to 1:10 28.35 28.26 28.25 28.23 28.28 28.18
8/30/2020 01:00 to 0:10 28.09 28.17 28.01 28.10 28.21 28.21